首页
METAR-TAF:

METAR-TAF

机场 :

伊利, 宾夕法尼亚州, 美国

纬度: 42-04-48N, 经度: 080-10-57W, 海拔: 223米

当前天气观测

该预报发布于47分钟前的07:51 UTC
风速21节,风向南转南东,有时为29节阵风
温度 1°C
湿度 51%
气压 1022 hPa
能見度: 16.1公里
天空无云

METAR: KERI 130751Z AUTO 16021G29KT 10SM CLR 01/M08 A3019 RMK AO2 PK WND 16029/0750 SLP232 T00061083

时间: 03:38 (08:38 UTC)

预报

该预报发布于3小时和5分钟前的05:33 UTC
预报有效从13日的 06点(UTC)到 14日的 06点(UTC)
风速15节,风向南转南东,有时为25节阵风
能見度: 10公里
多云层高于25000英尺
从 13日的 2000点(UTC)
风速11节,风向南转南东
能見度: 10公里
多云层高于5000英尺
从 14日的 0300点(UTC)
风速9节,风向南转南东
能見度: 10公里
阴天层高于3000英尺
从 14日的 0500点(UTC)
风速7节,风向南转南东
能見度: 9.7公里
阴天层高于1500英尺
小阵雨

TAF: KERI 130533Z 1306/1406 16015G25KT P6SM BKN250 FM132000 15011KT P6SM BKN050 FM140300 15009KT P6SM OVC030 FM140500 15007KT 6SM -SHRA OVC015

超过4000个机场的气象观测和天气预报(METAR&TAF报告)。

可查询的气象台以黄色和红色小点在地图上表示。

将鼠标移到小点上方,可查看气象台名称。

然后点击查看天气观测和预报。

如需切换地图:点击带黑十字的绿色按钮放大地图;点击带横线的绿色按钮缩小地图;或者点击绿色箭头查看邻近地区的地图。


METAR-TAF: